Hatsu Envoy — VSQL9 — position and weather

sailwx.info

Track history (hours):
 
Tides and Currents Weather Stations Pressure Air Temp Water Temp Dewpoint Dewpoint Depression Visibility Wind Speed Wind Dir Waves Ship Positions

Hatsu Envoy

Last reported at 2015-Mar-31 09:33 UTC. Time now 2015-Mar-31 09:44 UTC.
Position N 22°33' E 120°19'.

Type: Ship (hazmat cat D). MMSI: 235414000.

Date/timePositionNaut miles runAvg speedWind from/ knotsBaromVisibWave heightAir tempDewpointWater temp
2015-Mar-31 09:33N 22°33' E 120°19'0 0.0
2015-Mar-31 08:33N 22°33' E 120°19'0 0.0
2015-Mar-31 07:33N 22°33' E 120°19'0 0.0
2015-Mar-31 06:33N 22°33' E 120°19'0 0.0
2015-Mar-31 05:27N 22°33' E 120°19'0 0.0
2015-Mar-31 04:33N 22°33' E 120°19'0 0.0
2015-Mar-31 03:33N 22°33' E 120°19'0 0.0
2015-Mar-31 02:33N 22°33' E 120°19'0 0.0
2015-Mar-31 01:33N 22°33' E 120°19'0 0.0
2015-Mar-31 00:33N 22°33' E 120°19'0 0.0
2015-Mar-30 23:33N 22°33' E 120°19'0 0.0
2015-Mar-30 22:33N 22°33' E 120°19'0 0.0
2015-Mar-30 21:33N 22°33' E 120°19'0 0.0
2015-Mar-30 20:33N 22°33' E 120°19'0 0.0
2015-Mar-30 19:33N 22°33' E 120°19'0 0.0
2015-Mar-30 18:33N 22°33' E 120°19'1 0.6
2015-Mar-30 17:33N 22°33' E 120°18'7 7.2
2015-Mar-30 16:34N 22°31' E 120°11'2 1.9
2015-Mar-30 15:34N 22°31' E 120°09'2 1.5
2015-Mar-30 14:33N 22°30' E 120°09'9 8.9
2015-Mar-30 13:34N 22°31' E 119°60'1414.1
2015-Mar-30 12:34N 22°30' E 119°45'29015.7
2015-Mar-29 18:05N 22°08' E 114°32'917.1
2015-Mar-29 17:33N 22°07' E 114°22'1712.2
2015-Mar-29 16:08N 22°16' E 114°06'4 6.1
2015-Mar-29 15:33N 22°20' E 114°07'1 0.6
2015-Mar-29 14:31N 22°20' E 114°08'0 0.0
2015-Mar-29 13:31N 22°20' E 114°08'0 0.0
2015-Mar-29 12:28N 22°20' E 114°08'0 0.1
2015-Mar-29 11:28N 22°20' E 114°08'0 0.1
2015-Mar-29 10:31N 22°20' E 114°08'0 0.0
2015-Mar-29 09:31N 22°20' E 114°08'0 0.1
2015-Mar-29 08:31N 22°20' E 114°08'0 0.1
2015-Mar-29 07:31N 22°20' E 114°08'0 0.0
2015-Mar-29 06:31N 22°20' E 114°08'0 0.0
2015-Mar-29 05:31N 22°20' E 114°08'0 0.0
2015-Mar-29 04:33N 22°20' E 114°08'0 0.0
2015-Mar-29 03:33N 22°20' E 114°08'0 0.0
2015-Mar-29 02:33N 22°20' E 114°08'0 0.0
2015-Mar-29 01:33N 22°20' E 114°08'7 5.2
2015-Mar-29 00:12N 22°13' E 114°10'5 5.8
2015-Mar-28 23:23N 22°09' E 114°13'1214.3
2015-Mar-28 22:33N 22°11' E 114°26'2512.1
2015-Mar-28 20:30N 22°34' E 114°16'0 0.1
2015-Mar-28 18:28N 22°34' E 114°16'0 0.0
2015-Mar-28 17:32N 22°34' E 114°16'0 0.0
2015-Mar-28 14:27N 22°34' E 114°16'0 0.0
2015-Mar-28 12:27N 22°34' E 114°16'0 0.0
2015-Mar-28 11:30N 22°34' E 114°16'0 0.0
2015-Mar-28 08:20N 22°34' E 114°16'1910.5
2015-Mar-28 06:33N 22°22' E 114°31'1918.7
2015-Mar-28 05:32N 22°03' E 114°29'  
2015-Mar-25 06:33N 01°16' E 104°10'1919.0
2015-Mar-25 05:32N 01°11' E 103°52'79 2.0
2015-Mar-23 13:28N 01°42' E 102°39'1617.6
2015-Mar-23 12:32N 01°49' E 102°24'1817.8
2015-Mar-23 11:33N 01°59' E 102°09'2218.1
2015-Mar-23 10:20N 02°13' E 101°52'  
Track history (hours):
 
Tides and Currents Weather Stations Pressure Air Temp Water Temp Dewpoint Dewpoint Depression Visibility Wind Speed Wind Dir Waves Ship Positions

Hatsu Envoy

Last reported at 2015-Mar-31 09:33 UTC. Time now 2015-Mar-31 09:44 UTC.
Position N 22°33' E 120°19'.

Type: Ship (hazmat cat D). MMSI: 235414000.

Date/timePositionNaut miles runAvg speedWind from/ knotsBaromVisibWave heightAir tempDewpointWater temp
2015-Mar-31 09:33N 22°33' E 120°19'0 0.0
2015-Mar-31 08:33N 22°33' E 120°19'0 0.0
2015-Mar-31 07:33N 22°33' E 120°19'0 0.0
2015-Mar-31 06:33N 22°33' E 120°19'0 0.0
2015-Mar-31 05:27N 22°33' E 120°19'0 0.0
2015-Mar-31 04:33N 22°33' E 120°19'0 0.0
2015-Mar-31 03:33N 22°33' E 120°19'0 0.0
2015-Mar-31 02:33N 22°33' E 120°19'0 0.0
2015-Mar-31 01:33N 22°33' E 120°19'0 0.0
2015-Mar-31 00:33N 22°33' E 120°19'0 0.0
2015-Mar-30 23:33N 22°33' E 120°19'0 0.0
2015-Mar-30 22:33N 22°33' E 120°19'0 0.0
2015-Mar-30 21:33N 22°33' E 120°19'0 0.0
2015-Mar-30 20:33N 22°33' E 120°19'0 0.0
2015-Mar-30 19:33N 22°33' E 120°19'0 0.0
2015-Mar-30 18:33N 22°33' E 120°19'1 0.6
2015-Mar-30 17:33N 22°33' E 120°18'7 7.2
2015-Mar-30 16:34N 22°31' E 120°11'2 1.9
2015-Mar-30 15:34N 22°31' E 120°09'2 1.5
2015-Mar-30 14:33N 22°30' E 120°09'9 8.9
2015-Mar-30 13:34N 22°31' E 119°60'1414.1
2015-Mar-30 12:34N 22°30' E 119°45'29015.7
2015-Mar-29 18:05N 22°08' E 114°32'917.1
2015-Mar-29 17:33N 22°07' E 114°22'1712.2
2015-Mar-29 16:08N 22°16' E 114°06'4 6.1
2015-Mar-29 15:33N 22°20' E 114°07'1 0.6
2015-Mar-29 14:31N 22°20' E 114°08'0 0.0
2015-Mar-29 13:31N 22°20' E 114°08'0 0.0
2015-Mar-29 12:28N 22°20' E 114°08'0 0.1
2015-Mar-29 11:28N 22°20' E 114°08'0 0.1
2015-Mar-29 10:31N 22°20' E 114°08'0 0.0
2015-Mar-29 09:31N 22°20' E 114°08'0 0.1
2015-Mar-29 08:31N 22°20' E 114°08'0 0.1
2015-Mar-29 07:31N 22°20' E 114°08'0 0.0
2015-Mar-29 06:31N 22°20' E 114°08'0 0.0
2015-Mar-29 05:31N 22°20' E 114°08'0 0.0
2015-Mar-29 04:33N 22°20' E 114°08'0 0.0
2015-Mar-29 03:33N 22°20' E 114°08'0 0.0
2015-Mar-29 02:33N 22°20' E 114°08'0 0.0
2015-Mar-29 01:33N 22°20' E 114°08'7 5.2
2015-Mar-29 00:12N 22°13' E 114°10'5 5.8
2015-Mar-28 23:23N 22°09' E 114°13'1214.3
2015-Mar-28 22:33N 22°11' E 114°26'2512.1
2015-Mar-28 20:30N 22°34' E 114°16'0 0.1
2015-Mar-28 18:28N 22°34' E 114°16'0 0.0
2015-Mar-28 17:32N 22°34' E 114°16'0 0.0
2015-Mar-28 14:27N 22°34' E 114°16'0 0.0
2015-Mar-28 12:27N 22°34' E 114°16'0 0.0
2015-Mar-28 11:30N 22°34' E 114°16'0 0.0
2015-Mar-28 08:20N 22°34' E 114°16'1910.5
2015-Mar-28 06:33N 22°22' E 114°31'1918.7
2015-Mar-28 05:32N 22°03' E 114°29'  
2015-Mar-25 06:33N 01°16' E 104°10'1919.0
2015-Mar-25 05:32N 01°11' E 103°52'79 2.0
2015-Mar-23 13:28N 01°42' E 102°39'1617.6
2015-Mar-23 12:32N 01°49' E 102°24'1817.8
2015-Mar-23 11:33N 01°59' E 102°09'2218.1
2015-Mar-23 10:20N 02°13' E 101°52'  

Dump ship's entire track history